sensor_id;sensor_type;location;lat;lon;timestamp;temperature;humidity
27266;DHT22;14766;51.380;13.762;2022-10-26T00:03:35;14.20;63.20
27266;DHT22;14766;51.380;13.762;2022-10-26T00:06:08;14.20;63.10
27266;DHT22;14766;51.380;13.762;2022-10-26T00:08:36;14.20;63.20
27266;DHT22;14766;51.380;13.762;2022-10-26T00:11:04;14.20;63.40
27266;DHT22;14766;51.380;13.762;2022-10-26T00:13:32;14.10;63.50
27266;DHT22;14766;51.380;13.762;2022-10-26T00:16:00;14.20;63.80
27266;DHT22;14766;51.380;13.762;2022-10-26T00:18:28;14.10;63.70
27266;DHT22;14766;51.380;13.762;2022-10-26T00:21:02;14.10;63.70
27266;DHT22;14766;51.380;13.762;2022-10-26T00:23:30;14.10;63.80
27266;DHT22;14766;51.380;13.762;2022-10-26T00:25:57;14.10;64.00
27266;DHT22;14766;51.380;13.762;2022-10-26T00:28:25;14.10;64.10
27266;DHT22;14766;51.380;13.762;2022-10-26T00:30:52;14.10;64.20
27266;DHT22;14766;51.380;13.762;2022-10-26T00:33:20;14.00;64.10
27266;DHT22;14766;51.380;13.762;2022-10-26T00:35:51;14.00;64.00
27266;DHT22;14766;51.380;13.762;2022-10-26T00:38:20;14.10;64.00
27266;DHT22;14766;51.380;13.762;2022-10-26T00:40:48;14.10;64.00
27266;DHT22;14766;51.380;13.762;2022-10-26T00:43:33;14.00;64.20
27266;DHT22;14766;51.380;13.762;2022-10-26T00:46:02;14.00;64.30
27266;DHT22;14766;51.380;13.762;2022-10-26T00:48:41;14.00;64.50
27266;DHT22;14766;51.380;13.762;2022-10-26T00:51:12;14.00;64.30
27266;DHT22;14766;51.380;13.762;2022-10-26T00:53:42;14.00;64.20
27266;DHT22;14766;51.380;13.762;2022-10-26T00:56:10;14.00;64.00
27266;DHT22;14766;51.380;13.762;2022-10-26T00:58:38;14.00;63.90
27266;DHT22;14766;51.380;13.762;2022-10-26T01:01:05;13.90;63.90
27266;DHT22;14766;51.380;13.762;2022-10-26T01:03:33;13.90;64.00
27266;DHT22;14766;51.380;13.762;2022-10-26T01:06:03;13.90;64.20
27266;DHT22;14766;51.380;13.762;2022-10-26T01:08:30;13.90;64.10
27266;DHT22;14766;51.380;13.762;2022-10-26T01:10:58;13.90;64.10
27266;DHT22;14766;51.380;13.762;2022-10-26T01:13:27;13.90;64.00
27266;DHT22;14766;51.380;13.762;2022-10-26T01:24:20;13.80;63.80
27266;DHT22;14766;51.380;13.762;2022-10-26T01:29:58;13.80;63.80
27266;DHT22;14766;51.380;13.762;2022-10-26T01:38:16;13.70;63.70
27266;DHT22;14766;51.380;13.762;2022-10-26T01:40:48;13.70;63.60
27266;DHT22;14766;51.380;13.762;2022-10-26T01:43:20;13.70;63.60
27266;DHT22;14766;51.380;13.762;2022-10-26T01:45:49;13.70;63.70
27266;DHT22;14766;51.380;13.762;2022-10-26T01:48:19;13.70;63.60
27266;DHT22;14766;51.380;13.762;2022-10-26T01:50:52;13.60;63.60
27266;DHT22;14766;51.380;13.762;2022-10-26T01:53:20;13.60;63.70
27266;DHT22;14766;51.380;13.762;2022-10-26T01:55:49;13.60;63.70
27266;DHT22;14766;51.380;13.762;2022-10-26T02:05:04;13.50;63.70
27266;DHT22;14766;51.380;13.762;2022-10-26T02:07:24;13.50;63.60
27266;DHT22;14766;51.380;13.762;2022-10-26T02:15:53;13.50;63.60
27266;DHT22;14766;51.380;13.762;2022-10-26T02:18:35;13.40;63.60
27266;DHT22;14766;51.380;13.762;2022-10-26T02:21:12;13.40;63.60
27266;DHT22;14766;51.380;13.762;2022-10-26T02:23:43;13.40;63.50
27266;DHT22;14766;51.380;13.762;2022-10-26T02:26:15;13.40;63.80
27266;DHT22;14766;51.380;13.762;2022-10-26T02:28:49;13.30;63.60
27266;DHT22;14766;51.380;13.762;2022-10-26T02:31:19;13.30;63.60
27266;DHT22;14766;51.380;13.762;2022-10-26T02:33:48;13.30;63.60
27266;DHT22;14766;51.380;13.762;2022-10-26T02:36:25;13.30;63.50
27266;DHT22;14766;51.380;13.762;2022-10-26T02:38:54;13.30;63.50
27266;DHT22;14766;51.380;13.762;2022-10-26T02:41:25;13.30;63.50
27266;DHT22;14766;51.380;13.762;2022-10-26T02:46:33;13.20;63.70
27266;DHT22;14766;51.380;13.762;2022-10-26T02:49:00;13.20;63.70
27266;DHT22;14766;51.380;13.762;2022-10-26T02:51:37;13.20;63.70
27266;DHT22;14766;51.380;13.762;2022-10-26T02:56:51;13.20;64.60
27266;DHT22;14766;51.380;13.762;2022-10-26T02:59:21;13.20;63.90
27266;DHT22;14766;51.380;13.762;2022-10-26T03:01:50;13.20;63.70
27266;DHT22;14766;51.380;13.762;2022-10-26T03:04:17;13.10;63.70
27266;DHT22;14766;51.380;13.762;2022-10-26T03:06:52;13.10;63.70
27266;DHT22;14766;51.380;13.762;2022-10-26T03:09:20;13.10;63.70
27266;DHT22;14766;51.380;13.762;2022-10-26T03:11:52;13.10;63.60
27266;DHT22;14766;51.380;13.762;2022-10-26T03:14:19;13.10;63.50
27266;DHT22;14766;51.380;13.762;2022-10-26T03:16:46;13.10;63.40
27266;DHT22;14766;51.380;13.762;2022-10-26T03:19:13;13.00;63.30
27266;DHT22;14766;51.380;13.762;2022-10-26T03:21:41;13.00;63.30
27266;DHT22;14766;51.380;13.762;2022-10-26T03:24:08;13.00;63.30
27266;DHT22;14766;51.380;13.762;2022-10-26T03:26:36;13.00;63.30
27266;DHT22;14766;51.380;13.762;2022-10-26T03:29:10;13.00;63.40
27266;DHT22;14766;51.380;13.762;2022-10-26T03:31:53;13.00;63.70
27266;DHT22;14766;51.380;13.762;2022-10-26T03:34:21;12.90;63.10
27266;DHT22;14766;51.380;13.762;2022-10-26T03:36:48;12.90;63.10
27266;DHT22;14766;51.380;13.762;2022-10-26T03:39:15;12.90;62.90
27266;DHT22;14766;51.380;13.762;2022-10-26T03:41:42;12.90;63.10
27266;DHT22;14766;51.380;13.762;2022-10-26T03:44:10;12.90;63.20
27266;DHT22;14766;51.380;13.762;2022-10-26T03:46:37;12.80;63.10
27266;DHT22;14766;51.380;13.762;2022-10-26T03:49:04;12.80;63.20
27266;DHT22;14766;51.380;13.762;2022-10-26T03:51:31;12.80;63.10
27266;DHT22;14766;51.380;13.762;2022-10-26T03:53:59;12.80;63.10
27266;DHT22;14766;51.380;13.762;2022-10-26T03:56:26;12.80;63.20
27266;DHT22;14766;51.380;13.762;2022-10-26T03:58:54;12.80;63.20
27266;DHT22;14766;51.380;13.762;2022-10-26T04:01:21;12.70;63.20
27266;DHT22;14766;51.380;13.762;2022-10-26T04:03:48;12.70;63.10
27266;DHT22;14766;51.380;13.762;2022-10-26T04:06:15;12.70;63.20
27266;DHT22;14766;51.380;13.762;2022-10-26T04:08:43;12.70;63.20
27266;DHT22;14766;51.380;13.762;2022-10-26T04:11:11;12.70;63.10
27266;DHT22;14766;51.380;13.762;2022-10-26T04:13:38;12.70;63.10
27266;DHT22;14766;51.380;13.762;2022-10-26T04:16:05;12.70;63.10
27266;DHT22;14766;51.380;13.762;2022-10-26T04:18:32;12.70;63.30
27266;DHT22;14766;51.380;13.762;2022-10-26T04:21:02;12.60;63.30
27266;DHT22;14766;51.380;13.762;2022-10-26T04:23:29;12.60;63.10
27266;DHT22;14766;51.380;13.762;2022-10-26T04:25:56;12.60;63.10
27266;DHT22;14766;51.380;13.762;2022-10-26T04:28:25;12.60;63.10
27266;DHT22;14766;51.380;13.762;2022-10-26T04:30:52;12.60;63.10
27266;DHT22;14766;51.380;13.762;2022-10-26T04:33:20;12.60;63.10
27266;DHT22;14766;51.380;13.762;2022-10-26T04:35:47;12.60;63.20
27266;DHT22;14766;51.380;13.762;2022-10-26T04:38:15;12.60;63.30
27266;DHT22;14766;51.380;13.762;2022-10-26T04:40:43;12.50;63.30
27266;DHT22;14766;51.380;13.762;2022-10-26T04:43:10;12.50;63.40
27266;DHT22;14766;51.380;13.762;2022-10-26T04:45:38;12.50;63.50
27266;DHT22;14766;51.380;13.762;2022-10-26T04:48:07;12.60;63.60
27266;DHT22;14766;51.380;13.762;2022-10-26T04:50:35;12.50;63.60
27266;DHT22;14766;51.380;13.762;2022-10-26T04:53:09;12.50;63.50
27266;DHT22;14766;51.380;13.762;2022-10-26T04:55:36;12.50;63.50
27266;DHT22;14766;51.380;13.762;2022-10-26T04:58:04;12.50;63.50
27266;DHT22;14766;51.380;13.762;2022-10-26T05:00:32;12.50;63.70
27266;DHT22;14766;51.380;13.762;2022-10-26T05:03:04;12.50;63.70
27266;DHT22;14766;51.380;13.762;2022-10-26T05:05:33;12.50;63.80
27266;DHT22;14766;51.380;13.762;2022-10-26T05:08:00;12.50;63.80
27266;DHT22;14766;51.380;13.762;2022-10-26T05:10:27;12.50;63.80
27266;DHT22;14766;51.380;13.762;2022-10-26T05:12:56;12.50;63.70
27266;DHT22;14766;51.380;13.762;2022-10-26T05:15:24;12.50;63.70
27266;DHT22;14766;51.380;13.762;2022-10-26T05:18:02;12.50;63.60
27266;DHT22;14766;51.380;13.762;2022-10-26T05:20:32;12.50;63.50
27266;DHT22;14766;51.380;13.762;2022-10-26T05:23:01;12.40;63.30
27266;DHT22;14766;51.380;13.762;2022-10-26T05:25:30;12.40;63.20
27266;DHT22;14766;51.380;13.762;2022-10-26T05:27:58;12.40;63.20
27266;DHT22;14766;51.380;13.762;2022-10-26T05:30:28;12.40;63.10
27266;DHT22;14766;51.380;13.762;2022-10-26T05:32:56;12.40;63.20
27266;DHT22;14766;51.380;13.762;2022-10-26T05:35:24;12.40;63.30
27266;DHT22;14766;51.380;13.762;2022-10-26T05:37:52;12.40;63.40
27266;DHT22;14766;51.380;13.762;2022-10-26T05:40:19;12.30;63.30
27266;DHT22;14766;51.380;13.762;2022-10-26T05:42:46;12.30;63.30
27266;DHT22;14766;51.380;13.762;2022-10-26T05:45:14;12.30;63.20
27266;DHT22;14766;51.380;13.762;2022-10-26T05:47:44;12.30;63.20
27266;DHT22;14766;51.380;13.762;2022-10-26T05:50:12;12.30;63.30
27266;DHT22;14766;51.380;13.762;2022-10-26T05:52:41;12.30;63.40
27266;DHT22;14766;51.380;13.762;2022-10-26T05:55:10;12.30;63.50
27266;DHT22;14766;51.380;13.762;2022-10-26T05:57:38;12.30;63.60
27266;DHT22;14766;51.380;13.762;2022-10-26T06:00:15;12.30;63.80
27266;DHT22;14766;51.380;13.762;2022-10-26T06:05:33;12.30;63.90
27266;DHT22;14766;51.380;13.762;2022-10-26T06:08:01;12.30;63.70
27266;DHT22;14766;51.380;13.762;2022-10-26T06:10:29;12.30;63.70
27266;DHT22;14766;51.380;13.762;2022-10-26T06:12:57;12.30;63.70
27266;DHT22;14766;51.380;13.762;2022-10-26T06:15:27;12.30;63.80
27266;DHT22;14766;51.380;13.762;2022-10-26T06:28:49;12.30;65.00
27266;DHT22;14766;51.380;13.762;2022-10-26T06:31:19;12.40;64.20
27266;DHT22;14766;51.380;13.762;2022-10-26T06:33:46;12.40;64.50
27266;DHT22;14766;51.380;13.762;2022-10-26T06:36:21;12.50;65.00
27266;DHT22;14766;51.380;13.762;2022-10-26T06:39:04;12.70;66.20
27266;DHT22;14766;51.380;13.762;2022-10-26T06:41:34;13.00;66.70
27266;DHT22;14766;51.380;13.762;2022-10-26T06:44:04;13.50;66.90
27266;DHT22;14766;51.380;13.762;2022-10-26T06:51:47;14.90;65.20
27266;DHT22;14766;51.380;13.762;2022-10-26T06:56:51;16.00;63.50
27266;DHT22;14766;51.380;13.762;2022-10-26T06:59:34;16.60;62.50
27266;DHT22;14766;51.380;13.762;2022-10-26T07:02:02;17.20;60.80
27266;DHT22;14766;51.380;13.762;2022-10-26T07:04:32;17.70;59.40
27266;DHT22;14766;51.380;13.762;2022-10-26T07:06:59;18.20;58.00
27266;DHT22;14766;51.380;13.762;2022-10-26T07:09:26;18.50;57.00
27266;DHT22;14766;51.380;13.762;2022-10-26T07:11:55;18.90;56.20
27266;DHT22;14766;51.380;13.762;2022-10-26T07:14:23;19.20;55.50
27266;DHT22;14766;51.380;13.762;2022-10-26T07:16:50;19.50;55.60
27266;DHT22;14766;51.380;13.762;2022-10-26T07:19:17;19.80;55.30
27266;DHT22;14766;51.380;13.762;2022-10-26T07:21:44;20.10;54.50
27266;DHT22;14766;51.380;13.762;2022-10-26T07:24:11;20.40;54.30
27266;DHT22;14766;51.380;13.762;2022-10-26T07:26:38;20.70;54.80
27266;DHT22;14766;51.380;13.762;2022-10-26T07:29:05;21.10;54.30
27266;DHT22;14766;51.380;13.762;2022-10-26T07:31:32;21.40;53.90
27266;DHT22;14766;51.380;13.762;2022-10-26T07:33:59;21.80;53.30
27266;DHT22;14766;51.380;13.762;2022-10-26T07:36:28;22.10;52.80
27266;DHT22;14766;51.380;13.762;2022-10-26T07:38:55;22.40;53.10
27266;DHT22;14766;51.380;13.762;2022-10-26T07:41:21;22.60;51.90
27266;DHT22;14766;51.380;13.762;2022-10-26T07:43:48;22.80;50.50
27266;DHT22;14766;51.380;13.762;2022-10-26T07:46:16;23.00;50.20
27266;DHT22;14766;51.380;13.762;2022-10-26T07:48:45;23.10;49.50
27266;DHT22;14766;51.380;13.762;2022-10-26T07:51:12;23.20;49.50
27266;DHT22;14766;51.380;13.762;2022-10-26T07:53:39;23.30;49.30
27266;DHT22;14766;51.380;13.762;2022-10-26T07:56:08;23.50;49.20
27266;DHT22;14766;51.380;13.762;2022-10-26T07:58:35;23.60;49.20
27266;DHT22;14766;51.380;13.762;2022-10-26T08:01:11;23.80;49.00
27266;DHT22;14766;51.380;13.762;2022-10-26T08:03:39;24.00;48.40
27266;DHT22;14766;51.380;13.762;2022-10-26T08:06:06;24.20;47.90
27266;DHT22;14766;51.380;13.762;2022-10-26T08:08:33;24.40;47.30
27266;DHT22;14766;51.380;13.762;2022-10-26T08:11:00;24.70;47.50
27266;DHT22;14766;51.380;13.762;2022-10-26T08:13:28;24.90;46.90
27266;DHT22;14766;51.380;13.762;2022-10-26T08:16:01;25.10;46.50
27266;DHT22;14766;51.380;13.762;2022-10-26T08:18:29;25.30;46.20
27266;DHT22;14766;51.380;13.762;2022-10-26T08:21:05;25.50;45.40
27266;DHT22;14766;51.380;13.762;2022-10-26T08:23:38;25.70;44.30
27266;DHT22;14766;51.380;13.762;2022-10-26T08:26:07;25.80;44.30
27266;DHT22;14766;51.380;13.762;2022-10-26T08:28:34;25.90;43.70
27266;DHT22;14766;51.380;13.762;2022-10-26T08:31:01;26.00;42.90
27266;DHT22;14766;51.380;13.762;2022-10-26T08:33:29;26.00;42.40
27266;DHT22;14766;51.380;13.762;2022-10-26T08:36:02;26.10;42.00
27266;DHT22;14766;51.380;13.762;2022-10-26T08:38:30;26.10;41.70
27266;DHT22;14766;51.380;13.762;2022-10-26T08:41:05;26.10;42.40
27266;DHT22;14766;51.380;13.762;2022-10-26T08:43:41;26.20;42.50
27266;DHT22;14766;51.380;13.762;2022-10-26T08:46:21;26.30;41.80
27266;DHT22;14766;51.380;13.762;2022-10-26T08:48:54;26.50;42.20
27266;DHT22;14766;51.380;13.762;2022-10-26T08:51:31;26.60;40.80
27266;DHT22;14766;51.380;13.762;2022-10-26T08:54:18;26.70;40.90
27266;DHT22;14766;51.380;13.762;2022-10-26T08:56:51;26.80;40.00
27266;DHT22;14766;51.380;13.762;2022-10-26T08:59:43;26.90;40.20
27266;DHT22;14766;51.380;13.762;2022-10-26T09:02:14;26.90;39.50
27266;DHT22;14766;51.380;13.762;2022-10-26T09:04:42;26.70;39.50
27266;DHT22;14766;51.380;13.762;2022-10-26T09:16:05;25.50;40.60
27266;DHT22;14766;51.380;13.762;2022-10-26T09:19:01;25.10;40.80
27266;DHT22;14766;51.380;13.762;2022-10-26T09:24:32;24.40;42.30
27266;DHT22;14766;51.380;13.762;2022-10-26T09:27:09;24.10;42.80
27266;DHT22;14766;51.380;13.762;2022-10-26T09:29:42;23.80;43.50
27266;DHT22;14766;51.380;13.762;2022-10-26T09:32:18;23.60;44.40
27266;DHT22;14766;51.380;13.762;2022-10-26T09:34:56;23.40;44.90
27266;DHT22;14766;51.380;13.762;2022-10-26T09:40:26;22.90;45.60
27266;DHT22;14766;51.380;13.762;2022-10-26T09:43:34;22.70;46.10
27266;DHT22;14766;51.380;13.762;2022-10-26T09:45:52;22.40;46.80
27266;DHT22;14766;51.380;13.762;2022-10-26T09:48:21;22.20;47.50
27266;DHT22;14766;51.380;13.762;2022-10-26T09:50:52;22.00;48.30
27266;DHT22;14766;51.380;13.762;2022-10-26T09:53:20;21.80;48.90
27266;DHT22;14766;51.380;13.762;2022-10-26T09:55:50;21.70;49.40
27266;DHT22;14766;51.380;13.762;2022-10-26T09:58:24;21.60;49.70
27266;DHT22;14766;51.380;13.762;2022-10-26T10:00:53;21.40;50.00
27266;DHT22;14766;51.380;13.762;2022-10-26T10:03:26;21.40;50.30
27266;DHT22;14766;51.380;13.762;2022-10-26T10:06:12;21.20;50.80
27266;DHT22;14766;51.380;13.762;2022-10-26T10:08:41;21.20;51.10
27266;DHT22;14766;51.380;13.762;2022-10-26T10:11:13;21.10;51.50
27266;DHT22;14766;51.380;13.762;2022-10-26T10:13:42;21.20;51.70
27266;DHT22;14766;51.380;13.762;2022-10-26T10:18:56;21.30;52.60
27266;DHT22;14766;51.380;13.762;2022-10-26T10:21:43;21.40;53.20
27266;DHT22;14766;51.380;13.762;2022-10-26T10:24:31;21.60;52.50
27266;DHT22;14766;51.380;13.762;2022-10-26T10:29:52;22.00;52.40
27266;DHT22;14766;51.380;13.762;2022-10-26T10:32:30;22.10;52.70
27266;DHT22;14766;51.380;13.762;2022-10-26T10:35:27;22.40;52.60
27266;DHT22;14766;51.380;13.762;2022-10-26T10:37:54;22.70;52.30
27266;DHT22;14766;51.380;13.762;2022-10-26T10:40:24;23.00;52.00
27266;DHT22;14766;51.380;13.762;2022-10-26T10:43:02;23.40;51.70
27266;DHT22;14766;51.380;13.762;2022-10-26T10:45:29;23.70;51.20
27266;DHT22;14766;51.380;13.762;2022-10-26T10:51:09;24.30;50.30
27266;DHT22;14766;51.380;13.762;2022-10-26T10:53:52;24.60;49.30
27266;DHT22;14766;51.380;13.762;2022-10-26T10:56:41;24.90;48.80
27266;DHT22;14766;51.380;13.762;2022-10-26T10:59:50;25.20;47.20
27266;DHT22;14766;51.380;13.762;2022-10-26T11:08:27;25.80;45.30
27266;DHT22;14766;51.380;13.762;2022-10-26T11:11:15;26.00;44.60
27266;DHT22;14766;51.380;13.762;2022-10-26T11:16:31;26.10;43.80
27266;DHT22;14766;51.380;13.762;2022-10-26T11:21:36;26.10;43.90
27266;DHT22;14766;51.380;13.762;2022-10-26T11:24:18;26.20;43.70
27266;DHT22;14766;51.380;13.762;2022-10-26T11:27:10;26.20;43.70
27266;DHT22;14766;51.380;13.762;2022-10-26T11:32:18;26.10;43.20
27266;DHT22;14766;51.380;13.762;2022-10-26T11:37:39;26.00;43.10
27266;DHT22;14766;51.380;13.762;2022-10-26T11:40:33;25.90;43.00
27266;DHT22;14766;51.380;13.762;2022-10-26T11:45:44;25.60;43.60
27266;DHT22;14766;51.380;13.762;2022-10-26T11:48:22;25.60;43.70
27266;DHT22;14766;51.380;13.762;2022-10-26T11:50:53;25.40;44.00
27266;DHT22;14766;51.380;13.762;2022-10-26T11:53:24;25.30;44.00
27266;DHT22;14766;51.380;13.762;2022-10-26T11:55:53;25.30;44.30
27266;DHT22;14766;51.380;13.762;2022-10-26T11:58:23;25.20;44.50
27266;DHT22;14766;51.380;13.762;2022-10-26T12:00:59;25.10;44.80
27266;DHT22;14766;51.380;13.762;2022-10-26T12:03:31;25.10;44.80
27266;DHT22;14766;51.380;13.762;2022-10-26T12:05:59;25.00;45.00
27266;DHT22;14766;51.380;13.762;2022-10-26T12:08:30;24.90;45.00
27266;DHT22;14766;51.380;13.762;2022-10-26T12:11:37;24.90;45.30
27266;DHT22;14766;51.380;13.762;2022-10-26T12:14:41;24.80;45.50
27266;DHT22;14766;51.380;13.762;2022-10-26T12:22:37;24.60;45.90
27266;DHT22;14766;51.380;13.762;2022-10-26T12:25:18;24.50;45.90
27266;DHT22;14766;51.380;13.762;2022-10-26T12:30:14;24.30;46.30
27266;DHT22;14766;51.380;13.762;2022-10-26T12:32:56;24.30;46.50
27266;DHT22;14766;51.380;13.762;2022-10-26T12:35:35;24.20;46.70
27266;DHT22;14766;51.380;13.762;2022-10-26T12:43:38;24.10;46.50
27266;DHT22;14766;51.380;13.762;2022-10-26T12:59:36;23.70;46.50
27266;DHT22;14766;51.380;13.762;2022-10-26T13:03:15;23.70;46.80
27266;DHT22;14766;51.380;13.762;2022-10-26T13:06:01;23.60;47.00
27266;DHT22;14766;51.380;13.762;2022-10-26T13:08:46;23.60;47.40
27266;DHT22;14766;51.380;13.762;2022-10-26T13:11:20;23.50;47.30
27266;DHT22;14766;51.380;13.762;2022-10-26T13:13:53;23.40;47.50
27266;DHT22;14766;51.380;13.762;2022-10-26T13:16:24;23.40;47.70
27266;DHT22;14766;51.380;13.762;2022-10-26T13:18:52;23.40;47.90
27266;DHT22;14766;51.380;13.762;2022-10-26T13:21:21;23.30;48.00
27266;DHT22;14766;51.380;13.762;2022-10-26T13:23:58;23.30;48.20
27266;DHT22;14766;51.380;13.762;2022-10-26T13:29:31;23.20;48.50
27266;DHT22;14766;51.380;13.762;2022-10-26T13:31:59;23.10;48.60
27266;DHT22;14766;51.380;13.762;2022-10-26T13:34:29;23.10;48.60
27266;DHT22;14766;51.380;13.762;2022-10-26T13:37:22;23.00;48.50
27266;DHT22;14766;51.380;13.762;2022-10-26T13:39:50;22.90;48.50
27266;DHT22;14766;51.380;13.762;2022-10-26T13:42:48;22.90;48.70
27266;DHT22;14766;51.380;13.762;2022-10-26T13:45:52;22.80;48.90
27266;DHT22;14766;51.380;13.762;2022-10-26T13:48:34;22.70;49.20
27266;DHT22;14766;51.380;13.762;2022-10-26T13:51:15;22.70;49.00
27266;DHT22;14766;51.380;13.762;2022-10-26T13:53:59;22.60;49.20
27266;DHT22;14766;51.380;13.762;2022-10-26T13:56:40;22.60;49.40
27266;DHT22;14766;51.380;13.762;2022-10-26T13:59:12;22.60;49.50
27266;DHT22;14766;51.380;13.762;2022-10-26T14:01:39;22.50;49.60
27266;DHT22;14766;51.380;13.762;2022-10-26T14:04:17;22.50;49.80
27266;DHT22;14766;51.380;13.762;2022-10-26T14:06:51;22.40;50.10
27266;DHT22;14766;51.380;13.762;2022-10-26T14:09:21;22.40;50.10
27266;DHT22;14766;51.380;13.762;2022-10-26T14:11:51;22.30;50.10
27266;DHT22;14766;51.380;13.762;2022-10-26T14:14:28;22.30;50.20
27266;DHT22;14766;51.380;13.762;2022-10-26T14:16:57;22.30;50.40
27266;DHT22;14766;51.380;13.762;2022-10-26T14:19:36;22.30;50.50
27266;DHT22;14766;51.380;13.762;2022-10-26T14:22:04;22.20;50.50
27266;DHT22;14766;51.380;13.762;2022-10-26T14:24:34;22.10;50.30
27266;DHT22;14766;51.380;13.762;2022-10-26T14:27:22;22.10;50.30
27266;DHT22;14766;51.380;13.762;2022-10-26T14:29:51;22.10;50.20
27266;DHT22;14766;51.380;13.762;2022-10-26T14:32:39;22.00;50.20
27266;DHT22;14766;51.380;13.762;2022-10-26T14:35:13;22.00;50.20
27266;DHT22;14766;51.380;13.762;2022-10-26T14:37:51;22.00;50.50
27266;DHT22;14766;51.380;13.762;2022-10-26T14:40:23;21.90;50.80
27266;DHT22;14766;51.380;13.762;2022-10-26T14:42:54;21.90;51.20
27266;DHT22;14766;51.380;13.762;2022-10-26T14:45:36;21.80;51.40
27266;DHT22;14766;51.380;13.762;2022-10-26T14:48:20;21.80;51.70
27266;DHT22;14766;51.380;13.762;2022-10-26T14:53:49;21.70;51.70
27266;DHT22;14766;51.380;13.762;2022-10-26T14:59:24;21.60;52.20
27266;DHT22;14766;51.380;13.762;2022-10-26T15:04:27;21.60;53.20
27266;DHT22;14766;51.380;13.762;2022-10-26T15:12:29;21.50;53.20
27266;DHT22;14766;51.380;13.762;2022-10-26T15:15:08;21.40;53.80
27266;DHT22;14766;51.380;13.762;2022-10-26T15:17:39;21.40;53.70
27266;DHT22;14766;51.380;13.762;2022-10-26T15:20:17;21.40;53.90
27266;DHT22;14766;51.380;13.762;2022-10-26T15:22:55;21.30;54.00
27266;DHT22;14766;51.380;13.762;2022-10-26T15:25:25;21.30;54.30
27266;DHT22;14766;51.380;13.762;2022-10-26T15:27:53;21.30;54.40
27266;DHT22;14766;51.380;13.762;2022-10-26T15:32:47;21.10;54.70
27266;DHT22;14766;51.380;13.762;2022-10-26T15:37:46;21.00;54.90
27266;DHT22;14766;51.380;13.762;2022-10-26T15:40:14;21.00;55.10
27266;DHT22;14766;51.380;13.762;2022-10-26T15:42:42;21.00;55.30
27266;DHT22;14766;51.380;13.762;2022-10-26T15:45:17;20.90;55.30
27266;DHT22;14766;51.380;13.762;2022-10-26T15:47:47;20.90;55.20
27266;DHT22;14766;51.380;13.762;2022-10-26T15:50:22;20.90;55.30
27266;DHT22;14766;51.380;13.762;2022-10-26T15:53:00;20.80;55.00
27266;DHT22;14766;51.380;13.762;2022-10-26T15:55:29;20.70;55.30
27266;DHT22;14766;51.380;13.762;2022-10-26T15:57:56;20.70;55.50
27266;DHT22;14766;51.380;13.762;2022-10-26T16:00:23;20.70;55.90
27266;DHT22;14766;51.380;13.762;2022-10-26T16:02:50;20.60;56.10
27266;DHT22;14766;51.380;13.762;2022-10-26T16:05:17;20.60;56.20
27266;DHT22;14766;51.380;13.762;2022-10-26T16:07:46;20.50;56.40
27266;DHT22;14766;51.380;13.762;2022-10-26T16:10:19;20.50;56.60
27266;DHT22;14766;51.380;13.762;2022-10-26T16:12:47;20.50;57.40
27266;DHT22;14766;51.380;13.762;2022-10-26T16:15:22;20.40;56.70
27266;DHT22;14766;51.380;13.762;2022-10-26T16:17:50;20.30;56.90
27266;DHT22;14766;51.380;13.762;2022-10-26T16:20:20;20.20;57.00
27266;DHT22;14766;51.380;13.762;2022-10-26T16:22:51;20.20;57.10
27266;DHT22;14766;51.380;13.762;2022-10-26T16:25:22;20.20;57.20
27266;DHT22;14766;51.380;13.762;2022-10-26T16:27:51;20.10;57.40
27266;DHT22;14766;51.380;13.762;2022-10-26T16:30:18;20.10;57.50
27266;DHT22;14766;51.380;13.762;2022-10-26T16:32:47;20.00;57.60
27266;DHT22;14766;51.380;13.762;2022-10-26T16:35:15;20.00;57.80
27266;DHT22;14766;51.380;13.762;2022-10-26T16:37:44;19.90;57.80
27266;DHT22;14766;51.380;13.762;2022-10-26T16:40:12;19.90;58.20
27266;DHT22;14766;51.380;13.762;2022-10-26T16:42:39;19.80;58.60
27266;DHT22;14766;51.380;13.762;2022-10-26T16:45:12;19.80;58.30
27266;DHT22;14766;51.380;13.762;2022-10-26T16:47:39;19.70;58.30
27266;DHT22;14766;51.380;13.762;2022-10-26T16:50:07;19.70;58.30
27266;DHT22;14766;51.380;13.762;2022-10-26T16:52:36;19.70;58.50
27266;DHT22;14766;51.380;13.762;2022-10-26T16:55:04;19.60;59.30
27266;DHT22;14766;51.380;13.762;2022-10-26T16:57:32;19.60;58.70
27266;DHT22;14766;51.380;13.762;2022-10-26T17:00:01;19.50;58.80
27266;DHT22;14766;51.380;13.762;2022-10-26T17:02:28;19.50;58.90
27266;DHT22;14766;51.380;13.762;2022-10-26T17:04:56;19.40;58.90
27266;DHT22;14766;51.380;13.762;2022-10-26T17:07:27;19.40;59.10
27266;DHT22;14766;51.380;13.762;2022-10-26T17:09:54;19.40;59.20
27266;DHT22;14766;51.380;13.762;2022-10-26T17:12:21;19.30;59.30
27266;DHT22;14766;51.380;13.762;2022-10-26T17:14:48;19.30;59.30
27266;DHT22;14766;51.380;13.762;2022-10-26T17:17:16;19.30;59.50
27266;DHT22;14766;51.380;13.762;2022-10-26T17:19:43;19.30;59.50
27266;DHT22;14766;51.380;13.762;2022-10-26T17:22:10;19.20;59.60
27266;DHT22;14766;51.380;13.762;2022-10-26T17:24:37;19.20;59.70
27266;DHT22;14766;51.380;13.762;2022-10-26T17:27:04;19.10;59.80
27266;DHT22;14766;51.380;13.762;2022-10-26T17:29:31;19.10;59.80
27266;DHT22;14766;51.380;13.762;2022-10-26T17:31:58;19.10;60.00
27266;DHT22;14766;51.380;13.762;2022-10-26T17:34:25;19.10;60.10
27266;DHT22;14766;51.380;13.762;2022-10-26T17:36:52;19.10;60.30
27266;DHT22;14766;51.380;13.762;2022-10-26T17:39:19;19.10;60.00
27266;DHT22;14766;51.380;13.762;2022-10-26T17:41:46;19.00;61.00
27266;DHT22;14766;51.380;13.762;2022-10-26T17:44:13;19.00;59.90
27266;DHT22;14766;51.380;13.762;2022-10-26T17:46:41;19.00;59.90
27266;DHT22;14766;51.380;13.762;2022-10-26T17:49:09;19.00;60.20
27266;DHT22;14766;51.380;13.762;2022-10-26T17:51:36;18.90;60.00
27266;DHT22;14766;51.380;13.762;2022-10-26T17:54:03;18.90;60.10
27266;DHT22;14766;51.380;13.762;2022-10-26T17:56:32;18.90;60.20
27266;DHT22;14766;51.380;13.762;2022-10-26T17:59:04;18.90;59.90
27266;DHT22;14766;51.380;13.762;2022-10-26T18:01:31;18.90;59.90
27266;DHT22;14766;51.380;13.762;2022-10-26T18:03:59;18.80;59.90
27266;DHT22;14766;51.380;13.762;2022-10-26T18:06:26;18.80;60.10
27266;DHT22;14766;51.380;13.762;2022-10-26T18:08:56;18.80;60.00
27266;DHT22;14766;51.380;13.762;2022-10-26T18:11:24;18.80;60.00
27266;DHT22;14766;51.380;13.762;2022-10-26T18:13:54;18.80;59.90